createdAt,value
2018-07-03T00:01:45.079Z,15.30
2018-07-03T00:03:47.125Z,15.20
2018-07-03T00:05:49.136Z,15.20
2018-07-03T00:07:51.196Z,15.20
2018-07-03T00:09:53.229Z,15.10
2018-07-03T00:11:55.248Z,15.10
2018-07-03T00:13:57.279Z,15.10
2018-07-03T00:15:59.296Z,14.80
2018-07-03T00:20:04.049Z,14.70
2018-07-03T00:22:06.084Z,14.70
2018-07-03T00:24:08.108Z,14.50
2018-07-03T00:26:10.129Z,14.40
2018-07-03T00:28:12.157Z,14.40
2018-07-03T00:30:14.200Z,14.40
2018-07-03T00:32:16.238Z,14.40
2018-07-03T00:34:18.381Z,14.30
2018-07-03T00:36:20.466Z,14.40
2018-07-03T00:38:22.494Z,14.30
2018-07-03T00:40:24.581Z,14.40
2018-07-03T00:42:26.605Z,14.40
2018-07-03T00:46:30.734Z,14.40
2018-07-03T00:48:32.764Z,14.30
2018-07-03T00:50:34.808Z,14.30
2018-07-03T00:52:36.844Z,14.20
2018-07-03T00:54:38.871Z,14.10
2018-07-03T00:56:40.897Z,14.10
2018-07-03T00:58:42.928Z,14.00
2018-07-03T01:00:44.960Z,14.00
2018-07-03T01:02:47.007Z,14.10
2018-07-03T01:04:49.049Z,14.10
2018-07-03T01:06:51.081Z,14.00
2018-07-03T01:08:53.110Z,14.00
2018-07-03T01:10:55.161Z,14.00
2018-07-03T01:12:57.293Z,14.10
2018-07-03T01:14:59.321Z,14.00
2018-07-03T01:17:01.342Z,13.80
2018-07-03T01:19:03.476Z,13.80
2018-07-03T01:21:05.512Z,13.70
2018-07-03T01:23:07.528Z,13.60
2018-07-03T01:25:09.558Z,13.70
2018-07-03T01:27:11.592Z,13.70
2018-07-03T01:29:13.645Z,13.80
2018-07-03T01:31:15.678Z,13.70
2018-07-03T01:33:17.741Z,13.70
2018-07-03T01:35:19.767Z,13.70
2018-07-03T01:37:21.789Z,13.70
2018-07-03T01:39:23.927Z,13.70
2018-07-03T01:41:26.047Z,13.60
2018-07-03T01:43:28.080Z,13.60
2018-07-03T01:45:30.147Z,13.60
2018-07-03T01:47:32.256Z,13.50
2018-07-03T01:49:34.360Z,13.50
2018-07-03T01:51:36.389Z,13.40
2018-07-03T01:53:38.408Z,13.30
2018-07-03T01:55:40.454Z,13.30
2018-07-03T01:57:42.505Z,13.30
2018-07-03T01:59:44.523Z,13.20
2018-07-03T02:01:46.553Z,13.20
2018-07-03T02:03:48.583Z,13.10
2018-07-03T02:05:50.620Z,13.10
2018-07-03T02:07:53.941Z,13.10
2018-07-03T02:09:55.955Z,13.00
2018-07-03T02:11:57.990Z,13.00
2018-07-03T02:14:00.021Z,13.00
2018-07-03T02:16:03.648Z,13.00
2018-07-03T02:18:05.677Z,12.90
2018-07-03T02:20:07.696Z,12.80
2018-07-03T02:22:09.724Z,12.80
2018-07-03T02:24:12.095Z,12.70
2018-07-03T02:26:14.143Z,12.60
2018-07-03T02:28:16.163Z,12.50
2018-07-03T02:32:20.277Z,12.40
2018-07-03T02:34:22.301Z,12.40
2018-07-03T02:36:24.381Z,12.30
2018-07-03T02:38:26.421Z,12.30
2018-07-03T02:40:28.446Z,12.30
2018-07-03T02:42:30.486Z,12.30
2018-07-03T02:44:32.500Z,12.20
2018-07-03T02:46:34.537Z,12.20
2018-07-03T02:48:36.561Z,12.30
2018-07-03T02:50:38.600Z,12.20
2018-07-03T02:52:40.657Z,12.30
2018-07-03T02:54:42.709Z,12.30
2018-07-03T02:56:44.756Z,12.30
2018-07-03T02:58:46.785Z,12.30
2018-07-03T03:00:48.820Z,12.20
2018-07-03T03:02:50.846Z,12.30
2018-07-03T03:04:52.878Z,12.20
2018-07-03T03:06:54.904Z,12.20
2018-07-03T03:08:56.933Z,12.10
2018-07-03T03:10:58.964Z,12.10
2018-07-03T03:13:00.989Z,12.10
2018-07-03T03:15:03.536Z,12.10
2018-07-03T03:17:05.550Z,12.00
2018-07-03T03:19:07.556Z,12.00
2018-07-03T03:21:09.584Z,11.90
2018-07-03T03:23:11.608Z,11.90
2018-07-03T03:25:13.657Z,11.80
2018-07-03T03:27:15.689Z,11.80
2018-07-03T03:29:17.708Z,11.80
2018-07-03T03:31:19.739Z,11.80
2018-07-03T03:33:21.766Z,11.80
2018-07-03T03:35:23.785Z,11.70
2018-07-03T03:37:25.792Z,11.80
2018-07-03T03:39:27.815Z,11.80
2018-07-03T03:41:29.832Z,11.80
2018-07-03T03:43:31.848Z,11.70
2018-07-03T03:45:33.880Z,11.70
2018-07-03T03:47:35.904Z,11.70
2018-07-03T03:49:37.924Z,11.70
2018-07-03T03:51:39.932Z,11.70
2018-07-03T03:53:41.993Z,11.70
2018-07-03T03:55:43.969Z,11.70
2018-07-03T03:57:45.980Z,11.70
2018-07-03T03:59:48.129Z,11.70
2018-07-03T04:01:50.156Z,11.70
2018-07-03T04:03:52.155Z,11.80
2018-07-03T04:05:54.160Z,11.90
2018-07-03T04:07:56.184Z,11.90
2018-07-03T04:09:58.207Z,12.00
2018-07-03T04:12:00.228Z,12.00
2018-07-03T04:14:02.373Z,12.10
2018-07-03T04:16:04.412Z,12.10
2018-07-03T04:18:06.433Z,12.20
2018-07-03T04:20:08.578Z,12.20
2018-07-03T04:22:10.592Z,12.30
2018-07-03T04:24:12.600Z,12.40
2018-07-03T04:26:14.616Z,12.50
2018-07-03T04:28:16.638Z,12.50
2018-07-03T04:30:18.652Z,12.50
2018-07-03T04:32:20.665Z,12.50
2018-07-03T04:34:22.681Z,12.60
2018-07-03T04:36:24.700Z,12.60
2018-07-03T04:38:26.723Z,12.70
2018-07-03T04:40:28.752Z,12.80
2018-07-03T04:42:30.783Z,12.90
2018-07-03T04:44:32.818Z,12.90
2018-07-03T04:46:34.833Z,12.90
2018-07-03T04:48:37.640Z,13.10
2018-07-03T04:50:39.669Z,13.10
2018-07-03T04:52:41.712Z,13.20
2018-07-03T04:54:43.730Z,13.30
2018-07-03T04:56:45.757Z,13.40
2018-07-03T04:58:47.913Z,13.40
2018-07-03T05:00:49.912Z,13.60
2018-07-03T05:02:51.930Z,13.70
2018-07-03T05:04:53.954Z,13.70
2018-07-03T05:06:56.018Z,13.90
2018-07-03T05:08:58.040Z,14.00
2018-07-03T05:11:00.053Z,14.00
2018-07-03T05:13:02.060Z,14.20
2018-07-03T05:15:04.220Z,14.30
2018-07-03T05:17:06.255Z,14.50
2018-07-03T05:19:08.345Z,14.60
2018-07-03T05:21:10.362Z,14.80
2018-07-03T05:23:12.420Z,14.90
2018-07-03T05:25:14.472Z,15.10
2018-07-03T05:27:16.542Z,15.30
2018-07-03T05:29:18.753Z,15.40
2018-07-03T05:31:20.793Z,15.60
2018-07-03T05:33:22.853Z,15.80
2018-07-03T05:35:24.879Z,15.90
2018-07-03T05:37:26.917Z,16.10
2018-07-03T05:39:28.937Z,16.20
2018-07-03T05:41:30.992Z,16.40
2018-07-03T05:43:33.053Z,16.50
2018-07-03T05:45:35.093Z,16.70
2018-07-03T05:47:37.121Z,16.80
2018-07-03T05:49:39.160Z,17.00
2018-07-03T05:51:41.204Z,17.10
2018-07-03T05:55:45.344Z,17.50
2018-07-03T05:57:47.395Z,17.60
2018-07-03T05:59:49.444Z,17.70
2018-07-03T06:01:51.480Z,17.90
2018-07-03T06:03:53.630Z,18.10
2018-07-03T06:05:55.656Z,18.20
2018-07-03T06:07:57.688Z,18.30
2018-07-03T06:09:59.748Z,18.50
2018-07-03T06:12:01.780Z,18.70
2018-07-03T06:14:03.813Z,18.80
2018-07-03T06:16:05.877Z,18.90
2018-07-03T06:18:07.889Z,19.00
2018-07-03T06:20:10.321Z,19.20
2018-07-03T06:22:12.558Z,19.30
2018-07-03T06:24:14.350Z,19.40
2018-07-03T06:26:16.365Z,19.40
2018-07-03T06:30:20.477Z,19.60
2018-07-03T06:32:22.541Z,19.70
2018-07-03T06:34:24.568Z,19.80
2018-07-03T06:36:26.622Z,20.00
2018-07-03T06:38:28.645Z,20.20
2018-07-03T06:40:30.814Z,20.30
2018-07-03T06:42:32.898Z,20.70
2018-07-03T06:44:34.948Z,20.90
2018-07-03T06:46:36.976Z,21.00
2018-07-03T06:48:39.009Z,21.00
2018-07-03T06:50:41.024Z,21.10
2018-07-03T06:52:43.091Z,21.20
2018-07-03T06:54:45.085Z,21.50
2018-07-03T06:56:47.133Z,21.70
2018-07-03T06:58:49.113Z,21.70
2018-07-03T07:00:51.095Z,21.90
2018-07-03T07:02:53.140Z,22.10
2018-07-03T07:04:55.176Z,22.30
2018-07-03T07:06:57.229Z,22.30
2018-07-03T07:08:59.316Z,22.40
2018-07-03T07:11:01.290Z,22.70
2018-07-03T07:13:03.345Z,22.80
2018-07-03T07:15:05.993Z,22.70
2018-07-03T07:17:07.984Z,22.80
2018-07-03T07:19:10.045Z,22.80
2018-07-03T07:21:12.065Z,22.90
2018-07-03T07:23:14.104Z,22.90
2018-07-03T07:25:16.113Z,23.10
2018-07-03T07:27:18.120Z,23.20
2018-07-03T07:31:22.229Z,23.50
2018-07-03T07:35:26.320Z,23.60
2018-07-03T07:37:28.345Z,23.80
2018-07-03T07:39:30.366Z,23.90
2018-07-03T07:41:32.376Z,24.00
2018-07-03T07:43:34.401Z,24.30
2018-07-03T07:45:36.423Z,24.50
2018-07-03T07:47:38.449Z,24.70
2018-07-03T07:49:40.461Z,24.70
2018-07-03T07:51:42.460Z,24.50
2018-07-03T07:53:44.502Z,24.30
2018-07-03T07:55:46.523Z,24.50
2018-07-03T07:57:48.605Z,24.70
2018-07-03T07:59:50.631Z,24.80
2018-07-03T08:01:52.636Z,25.10
2018-07-03T08:03:54.944Z,25.20
2018-07-03T08:05:56.968Z,25.10
2018-07-03T08:10:01.048Z,24.90
2018-07-03T08:12:03.085Z,25.20
2018-07-03T08:14:05.113Z,25.50
2018-07-03T08:16:07.147Z,25.80
2018-07-03T08:18:09.176Z,25.60
2018-07-03T08:20:11.197Z,25.80
2018-07-03T08:22:13.212Z,25.90
2018-07-03T08:24:15.233Z,26.00
2018-07-03T08:26:17.237Z,26.10
2018-07-03T08:28:19.251Z,26.40
2018-07-03T08:30:21.272Z,26.30
2018-07-03T08:32:23.398Z,26.00
2018-07-03T08:34:25.364Z,25.90
2018-07-03T08:36:27.404Z,26.00
2018-07-03T08:38:29.428Z,26.00
2018-07-03T08:40:31.448Z,25.90
2018-07-03T08:42:33.482Z,26.40
2018-07-03T08:44:35.491Z,26.70
2018-07-03T08:46:37.512Z,26.70
2018-07-03T08:48:39.536Z,26.90
2018-07-03T08:50:41.569Z,26.90
2018-07-03T08:52:43.596Z,26.60
2018-07-03T08:54:45.627Z,26.70
2018-07-03T08:56:47.664Z,26.70
2018-07-03T08:58:49.717Z,26.80
2018-07-03T09:00:51.764Z,26.70
2018-07-03T09:02:53.788Z,26.50
2018-07-03T09:06:57.956Z,27.30
2018-07-03T09:09:00.081Z,27.10
2018-07-03T09:11:02.113Z,27.00
2018-07-03T09:13:04.149Z,27.20
2018-07-03T09:15:06.923Z,27.00
2018-07-03T09:17:41.109Z,27.20
2018-07-03T09:19:43.137Z,27.40
2018-07-03T09:21:45.229Z,27.50
2018-07-03T09:23:47.248Z,27.60
2018-07-03T09:25:49.289Z,27.80
2018-07-03T09:27:51.308Z,28.00
2018-07-03T09:29:53.343Z,28.50
2018-07-03T09:31:55.340Z,28.50
2018-07-03T09:33:57.371Z,28.60
2018-07-03T09:35:59.384Z,28.80
2018-07-03T09:38:01.415Z,28.70
2018-07-03T09:40:03.809Z,29.10
2018-07-03T09:42:05.834Z,28.70
2018-07-03T09:44:08.344Z,29.00
2018-07-03T09:46:10.393Z,29.20
2018-07-03T09:48:12.436Z,29.00
2018-07-03T09:50:14.498Z,29.30
2018-07-03T09:52:16.993Z,28.90
2018-07-03T09:54:19.037Z,29.10
2018-07-03T09:56:21.085Z,28.90
2018-07-03T09:58:23.132Z,28.60
2018-07-03T10:00:31.055Z,28.70
2018-07-03T10:02:33.140Z,29.50
2018-07-03T10:04:35.165Z,29.60
2018-07-03T10:06:37.272Z,29.20
2018-07-03T10:08:39.309Z,28.70
2018-07-03T10:10:41.373Z,29.10
2018-07-03T10:12:43.451Z,29.10
2018-07-03T10:14:45.501Z,29.10
2018-07-03T10:16:47.565Z,29.40
2018-07-03T10:18:49.604Z,29.30
2018-07-03T10:20:51.645Z,28.90
2018-07-03T10:22:53.672Z,28.80
2018-07-03T10:24:55.699Z,28.40
2018-07-03T10:26:57.754Z,28.30
2018-07-03T10:29:00.137Z,28.30
2018-07-03T10:31:02.210Z,28.70
2018-07-03T10:33:04.262Z,29.20
2018-07-03T10:35:06.284Z,29.30
2018-07-03T10:37:08.308Z,28.90
2018-07-03T10:39:11.685Z,28.50
2018-07-03T10:41:13.725Z,29.30
2018-07-03T10:43:15.772Z,30.10
2018-07-03T10:45:17.815Z,30.90
2018-07-03T10:47:19.837Z,31.70
2018-07-03T10:49:21.875Z,31.80
2018-07-03T10:51:23.932Z,31.50
2018-07-03T10:53:26.024Z,30.70
2018-07-03T10:55:28.066Z,30.20
2018-07-03T10:57:30.198Z,30.10
2018-07-03T10:59:32.265Z,29.60
2018-07-03T11:01:34.283Z,29.50
2018-07-03T11:03:36.295Z,29.60
2018-07-03T11:05:38.355Z,29.60
2018-07-03T11:07:40.339Z,29.80
2018-07-03T11:09:42.397Z,29.50
2018-07-03T11:11:44.444Z,29.50
2018-07-03T11:13:46.516Z,29.60
2018-07-03T11:15:48.536Z,29.10
2018-07-03T11:17:50.564Z,29.20
2018-07-03T11:19:52.621Z,29.10
2018-07-03T11:21:54.616Z,29.00
2018-07-03T11:23:56.680Z,29.00
2018-07-03T11:25:58.684Z,28.90
2018-07-03T11:28:00.709Z,29.10
2018-07-03T11:32:04.873Z,29.40
2018-07-03T11:34:06.972Z,29.90
2018-07-03T11:36:08.989Z,29.80
2018-07-03T11:38:11.021Z,30.60
2018-07-03T11:40:13.042Z,30.70
2018-07-03T11:42:15.052Z,30.90
2018-07-03T11:44:17.087Z,31.20
2018-07-03T11:46:19.110Z,30.80
2018-07-03T11:48:21.120Z,30.70
2018-07-03T11:50:23.145Z,30.70
2018-07-03T11:52:25.220Z,30.80
2018-07-03T11:54:27.282Z,30.90
2018-07-03T11:56:29.338Z,31.20
2018-07-03T11:58:31.369Z,30.80
2018-07-03T12:00:33.417Z,30.40
2018-07-03T12:02:35.455Z,29.90
2018-07-03T12:04:37.587Z,29.90
2018-07-03T12:06:39.608Z,30.20
2018-07-03T12:08:41.628Z,30.80
2018-07-03T12:10:43.660Z,31.20
2018-07-03T12:12:45.717Z,31.50
2018-07-03T12:14:47.729Z,31.40
2018-07-03T12:16:49.772Z,31.90
2018-07-03T12:18:57.640Z,32.00
2018-07-03T12:20:59.657Z,32.10
2018-07-03T12:23:01.685Z,32.30
2018-07-03T12:25:03.856Z,31.80
2018-07-03T12:27:05.962Z,31.90
2018-07-03T12:29:08.003Z,31.50
2018-07-03T12:31:10.054Z,30.80
2018-07-03T12:33:12.084Z,30.90
2018-07-03T12:35:14.097Z,30.60
2018-07-03T12:37:16.133Z,30.50
2018-07-03T12:41:20.238Z,31.00
2018-07-03T12:43:22.335Z,31.10
2018-07-03T12:45:24.332Z,31.00
2018-07-03T12:47:26.340Z,31.10
2018-07-03T12:49:28.364Z,31.60
2018-07-03T12:51:30.378Z,32.00
2018-07-03T12:53:32.383Z,31.70
2018-07-03T12:55:34.419Z,31.40
2018-07-03T12:57:36.455Z,31.30
2018-07-03T12:59:38.512Z,31.50
2018-07-03T13:01:40.621Z,31.40
2018-07-03T13:03:42.656Z,31.50
2018-07-03T13:05:44.704Z,31.70
2018-07-03T13:07:46.831Z,32.10
2018-07-03T13:09:49.074Z,31.80
2018-07-03T13:11:51.164Z,31.90
2018-07-03T13:13:53.209Z,32.00
2018-07-03T13:15:55.271Z,31.70
2018-07-03T13:17:57.372Z,31.70
2018-07-03T13:19:59.379Z,31.30
2018-07-03T13:22:01.435Z,31.40
2018-07-03T13:24:03.504Z,31.40
2018-07-03T13:26:05.543Z,31.30
2018-07-03T13:28:07.604Z,31.30
2018-07-03T13:30:10.206Z,31.40
2018-07-03T13:32:12.212Z,31.60
2018-07-03T13:34:14.221Z,31.50
2018-07-03T13:36:16.236Z,31.80
2018-07-03T13:38:18.264Z,31.60
2018-07-03T13:40:20.269Z,31.90
2018-07-03T13:42:22.293Z,31.70
2018-07-03T13:44:24.382Z,31.30
2018-07-03T13:46:26.405Z,31.70
2018-07-03T13:48:28.522Z,31.00
2018-07-03T13:50:30.480Z,31.30
2018-07-03T13:52:32.526Z,31.40
2018-07-03T13:54:34.582Z,31.70
2018-07-03T13:56:36.620Z,31.80
2018-07-03T13:58:38.696Z,31.50
2018-07-03T14:00:40.705Z,31.30
2018-07-03T14:02:42.742Z,31.30
2018-07-03T14:04:44.804Z,31.40
2018-07-03T14:06:46.832Z,31.30
2018-07-03T14:08:48.910Z,31.50
2018-07-03T14:10:50.886Z,31.40
2018-07-03T14:12:52.937Z,31.50
2018-07-03T14:14:54.982Z,31.50
2018-07-03T14:16:57.025Z,31.40
2018-07-03T14:18:59.045Z,31.00
2018-07-03T14:21:01.132Z,30.70
2018-07-03T14:23:03.112Z,30.40
2018-07-03T14:25:05.136Z,30.20
2018-07-03T14:27:07.184Z,30.50
2018-07-03T14:29:09.217Z,30.50
2018-07-03T14:31:11.361Z,30.30
2018-07-03T14:33:13.475Z,30.30
2018-07-03T14:35:15.526Z,30.30
2018-07-03T14:37:17.589Z,30.20
2018-07-03T14:39:19.608Z,30.40
2018-07-03T14:41:21.617Z,30.60
2018-07-03T14:43:23.636Z,30.70
2018-07-03T14:45:25.663Z,30.70
2018-07-03T14:47:27.679Z,30.70
2018-07-03T14:51:31.804Z,30.90
2018-07-03T14:53:34.103Z,30.70
2018-07-03T14:55:36.149Z,30.60
2018-07-03T14:57:38.156Z,30.50
2018-07-03T14:59:40.169Z,30.30
2018-07-03T15:01:42.174Z,30.30
2018-07-03T15:03:44.276Z,30.30
2018-07-03T15:05:46.316Z,30.30
2018-07-03T15:07:48.357Z,30.40
2018-07-03T15:09:50.415Z,30.20
2018-07-03T15:11:52.473Z,30.40
2018-07-03T15:13:54.537Z,30.30
2018-07-03T15:15:56.544Z,30.20
2018-07-03T15:17:58.651Z,30.30
2018-07-03T15:20:00.766Z,30.10
2018-07-03T15:22:02.860Z,30.00
2018-07-03T15:24:06.263Z,29.90
2018-07-03T15:26:08.461Z,30.00
2018-07-03T15:30:14.836Z,30.10
2018-07-03T15:32:16.861Z,29.90
2018-07-03T15:34:18.971Z,29.80
2018-07-03T15:36:21.039Z,29.60
2018-07-03T15:38:23.147Z,29.50
2018-07-03T15:40:25.150Z,29.70
2018-07-03T15:42:27.218Z,29.60
2018-07-03T15:44:40.931Z,29.60
2018-07-03T15:46:42.960Z,29.70
2018-07-03T15:48:44.994Z,29.70
2018-07-03T15:50:47.029Z,29.50
2018-07-03T15:52:49.052Z,29.40
2018-07-03T15:54:51.091Z,29.50
2018-07-03T15:56:53.120Z,29.30
2018-07-03T15:58:55.156Z,29.40
2018-07-03T16:00:57.188Z,29.50
2018-07-03T16:03:10.876Z,29.40
2018-07-03T16:05:24.404Z,29.50
2018-07-03T16:09:46.532Z,29.50
2018-07-03T16:11:48.577Z,29.30
2018-07-03T16:13:50.657Z,29.20
2018-07-03T16:15:52.690Z,29.00
2018-07-03T16:17:54.750Z,29.00
2018-07-03T16:20:02.393Z,29.10
2018-07-03T16:22:04.465Z,29.10
2018-07-03T16:24:06.981Z,29.10
2018-07-03T16:26:09.004Z,29.00
2018-07-03T16:28:11.047Z,29.00
2018-07-03T16:30:13.093Z,29.00
2018-07-03T16:32:15.138Z,28.90
2018-07-03T16:34:17.200Z,28.90
2018-07-03T16:36:19.350Z,28.90
2018-07-03T16:38:21.366Z,28.90
2018-07-03T16:40:23.381Z,28.90
2018-07-03T16:42:25.425Z,28.80
2018-07-03T16:44:27.445Z,28.80
2018-07-03T16:46:29.476Z,28.80
2018-07-03T16:48:31.606Z,28.80
2018-07-03T16:50:33.643Z,28.60
2018-07-03T16:52:35.660Z,28.50
2018-07-03T16:54:37.727Z,28.30
2018-07-03T16:56:39.756Z,28.20
2018-07-03T16:58:41.813Z,28.20
2018-07-03T17:00:43.800Z,28.20
2018-07-03T17:02:45.861Z,28.30
2018-07-03T17:04:47.985Z,28.30
2018-07-03T17:06:50.005Z,28.30
2018-07-03T17:08:52.056Z,28.20
2018-07-03T17:10:54.078Z,28.20
2018-07-03T17:12:56.507Z,28.20
2018-07-03T17:14:58.529Z,28.20
2018-07-03T17:17:00.556Z,28.20
2018-07-03T17:19:08.347Z,28.10
2018-07-03T17:23:12.489Z,28.00
2018-07-03T17:25:14.580Z,28.00
2018-07-03T17:27:16.704Z,28.00
2018-07-03T17:29:18.809Z,27.90
2018-07-03T17:31:20.836Z,27.80
2018-07-03T17:33:22.855Z,27.80
2018-07-03T17:35:24.908Z,27.70
2018-07-03T17:37:27.078Z,27.70
2018-07-03T17:39:40.801Z,27.60
2018-07-03T17:41:54.825Z,27.60
2018-07-03T17:45:35.915Z,27.60
2018-07-03T17:47:37.965Z,27.50
2018-07-03T17:49:39.981Z,27.40
2018-07-03T17:51:42.010Z,27.40
2018-07-03T17:53:44.028Z,27.30
2018-07-03T17:55:46.069Z,27.20
2018-07-03T17:57:48.136Z,27.10
2018-07-03T17:59:50.226Z,27.10
2018-07-03T18:01:52.253Z,27.00
2018-07-03T18:03:54.320Z,26.90
2018-07-03T18:05:56.376Z,26.80
2018-07-03T18:07:58.562Z,26.90
2018-07-03T18:10:00.658Z,26.80
2018-07-03T18:12:02.692Z,26.80
2018-07-03T18:14:05.212Z,26.70
2018-07-03T18:16:07.408Z,26.70
2018-07-03T18:18:09.462Z,26.60
2018-07-03T18:20:11.537Z,26.60
2018-07-03T18:22:13.593Z,26.50
2018-07-03T18:24:15.637Z,26.40
2018-07-03T18:26:17.656Z,26.40
2018-07-03T18:28:19.656Z,26.30
2018-07-03T18:30:21.660Z,26.30
2018-07-03T18:32:24.066Z,26.20
2018-07-03T18:34:26.100Z,26.20
2018-07-03T18:36:28.209Z,26.10
2018-07-03T18:38:30.223Z,26.00
2018-07-03T18:40:32.289Z,25.90
2018-07-03T18:42:34.361Z,25.90
2018-07-03T18:44:36.468Z,25.70
2018-07-03T18:46:38.492Z,25.70
2018-07-03T18:48:40.511Z,25.60
2018-07-03T18:50:42.564Z,25.40
2018-07-03T18:52:44.614Z,25.40
2018-07-03T18:54:46.643Z,25.40
2018-07-03T18:56:52.260Z,25.30
2018-07-03T18:58:54.329Z,25.20
2018-07-03T19:00:56.466Z,25.10
2018-07-03T19:02:58.532Z,25.10
2018-07-03T19:05:00.537Z,25.00
2018-07-03T19:07:02.688Z,24.90
2018-07-03T19:09:05.904Z,24.80
2018-07-03T19:11:07.929Z,24.70
2018-07-03T19:13:09.992Z,24.70
2018-07-03T19:15:12.022Z,24.50
2018-07-03T19:17:14.105Z,24.50
2018-07-03T19:19:16.197Z,24.40
2018-07-03T19:21:18.257Z,24.30
2018-07-03T19:23:20.327Z,24.20
2018-07-03T19:25:26.642Z,24.00
2018-07-03T19:27:28.808Z,24.00
2018-07-03T19:29:30.897Z,23.90
2018-07-03T19:31:33.281Z,23.80
2018-07-03T19:33:35.357Z,23.80
2018-07-03T19:37:40.965Z,23.60
2018-07-03T19:39:43.022Z,23.50
2018-07-03T19:41:45.094Z,23.50
2018-07-03T19:43:47.204Z,23.40
2018-07-03T19:45:50.460Z,23.40
2018-07-03T19:47:52.632Z,23.30
2018-07-03T19:49:56.585Z,23.20
2018-07-03T19:51:58.717Z,23.20
2018-07-03T19:54:01.099Z,23.10
2018-07-03T19:56:04.139Z,23.10
2018-07-03T19:58:06.863Z,23.00
2018-07-03T20:00:08.904Z,22.90
2018-07-03T20:02:11.084Z,22.90
2018-07-03T20:04:15.236Z,22.80
2018-07-03T20:06:17.297Z,22.70
2018-07-03T20:08:19.405Z,22.60
2018-07-03T20:10:21.428Z,22.60
2018-07-03T20:12:23.528Z,22.50
2018-07-03T20:14:27.648Z,22.40
2018-07-03T20:16:30.462Z,22.40
2018-07-03T20:18:34.248Z,22.40
2018-07-03T20:20:36.268Z,22.20
2018-07-03T20:22:38.460Z,22.20
2018-07-03T20:24:40.489Z,22.20
2018-07-03T20:26:42.609Z,22.20
2018-07-03T20:28:44.728Z,22.20
2018-07-03T20:30:47.756Z,22.20
2018-07-03T20:32:50.534Z,22.10
2018-07-03T20:34:53.623Z,22.00
2018-07-03T20:36:55.833Z,22.00
2018-07-03T20:38:58.108Z,21.90
2018-07-03T20:41:04.181Z,21.80
2018-07-03T20:43:06.235Z,21.70
2018-07-03T20:45:08.333Z,21.70
2018-07-03T20:47:10.589Z,21.70
2018-07-03T20:49:12.626Z,21.70
2018-07-03T20:51:14.684Z,21.50
2018-07-03T20:53:16.749Z,21.50
2018-07-03T20:55:18.796Z,21.40
2018-07-03T20:57:20.876Z,21.30
2018-07-03T20:59:22.901Z,21.20
2018-07-03T21:01:24.956Z,21.30
2018-07-03T21:03:26.983Z,21.20
2018-07-03T21:05:29.032Z,21.20
2018-07-03T21:07:31.052Z,21.10
2018-07-03T21:09:33.081Z,21.10
2018-07-03T21:11:35.166Z,21.00
2018-07-03T21:13:37.178Z,20.90
2018-07-03T21:15:39.208Z,20.90
2018-07-03T21:17:41.228Z,20.80
2018-07-03T21:19:43.304Z,20.70
2018-07-03T21:21:45.333Z,20.60
2018-07-03T21:23:47.357Z,20.50
2018-07-03T21:25:49.399Z,20.50
2018-07-03T21:27:51.431Z,20.50
2018-07-03T21:34:49.069Z,20.20
2018-07-03T21:36:51.115Z,20.10
2018-07-03T21:38:53.212Z,20.00
2018-07-03T21:40:55.186Z,19.90
2018-07-03T21:42:57.208Z,19.80
2018-07-03T21:44:59.261Z,19.70
2018-07-03T21:47:01.391Z,19.50
2018-07-03T21:49:03.429Z,19.50
2018-07-03T21:51:05.474Z,19.60
2018-07-03T21:53:07.508Z,19.60
2018-07-03T21:55:09.553Z,19.50
2018-07-03T21:57:11.575Z,19.50
2018-07-03T21:59:14.292Z,19.40
2018-07-03T22:01:16.325Z,19.20
2018-07-03T22:03:18.345Z,19.20
2018-07-03T22:05:20.392Z,19.20
2018-07-03T22:07:22.536Z,19.00
2018-07-03T22:09:24.561Z,19.00
2018-07-03T22:11:26.593Z,18.90
2018-07-03T22:13:28.610Z,18.80
2018-07-03T22:15:30.698Z,18.80
2018-07-03T22:17:32.728Z,18.70
2018-07-03T22:19:34.780Z,18.60
2018-07-03T22:21:36.928Z,18.20
2018-07-03T22:23:38.948Z,18.00
2018-07-03T22:25:40.988Z,18.10
2018-07-03T22:27:43.029Z,18.10
2018-07-03T22:29:45.060Z,18.10
2018-07-03T22:31:47.092Z,18.30
2018-07-03T22:33:49.121Z,18.30
2018-07-03T22:35:51.177Z,18.30
2018-07-03T22:37:53.204Z,18.30
2018-07-03T22:39:55.238Z,18.30
2018-07-03T22:41:57.256Z,18.30
2018-07-03T22:43:59.285Z,18.20
2018-07-03T22:46:01.325Z,18.10
2018-07-03T22:48:03.360Z,18.10
2018-07-03T22:50:05.405Z,18.10
2018-07-03T22:52:07.432Z,18.00
2018-07-03T22:54:09.461Z,18.10
2018-07-03T22:56:11.492Z,18.00
2018-07-03T22:58:13.516Z,17.90
2018-07-03T23:00:15.581Z,17.80
2018-07-03T23:02:17.604Z,17.60
2018-07-03T23:04:19.642Z,17.70
2018-07-03T23:06:21.785Z,17.70
2018-07-03T23:08:23.781Z,17.60
2018-07-03T23:10:25.829Z,17.60
2018-07-03T23:12:27.902Z,17.60
2018-07-03T23:14:29.948Z,17.60
2018-07-03T23:16:32.059Z,17.60
2018-07-03T23:18:34.079Z,17.60
2018-07-03T23:20:36.112Z,17.40
2018-07-03T23:22:38.153Z,17.30
2018-07-03T23:24:40.580Z,17.20
2018-07-03T23:26:42.628Z,17.30
2018-07-03T23:28:44.662Z,17.40
2018-07-03T23:30:46.717Z,17.40
2018-07-03T23:32:48.740Z,17.40
2018-07-03T23:34:50.767Z,17.30
2018-07-03T23:36:52.788Z,17.30
2018-07-03T23:38:54.813Z,17.10
2018-07-03T23:40:56.847Z,16.90
2018-07-03T23:42:58.886Z,16.90
2018-07-03T23:45:00.927Z,16.90
2018-07-03T23:47:14.599Z,16.80
2018-07-03T23:49:28.232Z,16.90
2018-07-03T23:51:42.023Z,16.70
2018-07-03T23:53:55.741Z,16.60
2018-07-03T23:56:09.440Z,16.60
2018-07-03T23:58:23.090Z,16.60
